Flight Number: EUR1092 Duration: 1:30
Departure: Milano Linate (LIML) at 08:30 Distance: 510 Nm
Arrival: Gatwick Airport (EGKK) at 10:00 Equipment: MD-81

Weather Information
Milano / Linate, Italy (LIML) 45-26N 009-17E 103M Aug 19, 2018 - 04:50 AM EDT / 2018.08.19 0850 UTC
Wind: Variable at 1 MPH (1 KT):0
Visibility: greater than 7 mile(s):0 Temperature: 84 F (29 C) Dew Point: 62 F (17 C) Relative Humidity: 48% Pressure (altimeter): 30.09 in. Hg (1019 hPa)
ob: LIML 190850Z VRB01KT CAVOK 29/17 Q1019 NOSIG cycle: 9
Sunrise: 04:32 Sunset: 18:20 (UTC)

London / Gatwick Airport, United Kingdom (EGKK) 51-09N 000-11W 0M Aug 19, 2018 - 04:50 AM EDT / 2018.08.19 0850 UTC
Wind: from the SW (220 degrees) at 13 MPH (11 KT) (direction variable):0
Visibility: greater than 7 mile(s):0
Sky conditions: mostly cloudy Temperature: 64 F (18 C) Dew Point: 59 F (15 C) Relative Humidity: 82% Pressure (altimeter): 30.09 in. Hg (1019 hPa)
ob: EGKK 190850Z 22011KT 180V250 9999 BKN013 18/15 Q1019 cycle: 9
Sunrise: 04:58 Sunset: 19:10 (UTC)

TAF:2018/08/19 06:20 TAF EGKK 190458Z 1906/2012 22008KT 9999 BKN020 TEMPO 1906/1915 BKN010 PROB30 TEMPO 1906/1914 7000 -DZ BKN007 PROB30 TEMPO 1911/1915 22015G25KT PROB30 TEMPO 2002/2008 5000 HZ BKN006

Previous Pireps for this route
Date Aircraft Flight time Fuel used Landing rate On time
2012-08-27MD-8102.2112000-349No
2012-09-23MD-8102.0713658-164No
2012-12-14A32101.4810598-234Yes
2013-03-06A3211.328957-74No
2013-09-02A3211.35117810No
2014-01-02A32101.3910325-265Yes
2014-10-15MD-8101.3510888-386Yes
2015-05-25A32101.5911235-231Yes
2015-08-10MD-8101.3710852-234Yes
2016-03-12MD-8101.4011151-204Yes
2016-10-16MD-811.40120520Charter
2017-08-26MD-812.2890620Charter
2017-08-26MD-812.2890620Charter
(pireps marked green are flown by you)

Route map